createdAt,value
2019-01-13T00:00:41.531Z,100655.88
2019-01-13T00:03:09.838Z,100653.70
2019-01-13T00:05:38.127Z,100654.56
2019-01-13T00:08:06.561Z,100652.12
2019-01-13T00:10:34.988Z,100659.92
2019-01-13T00:13:03.456Z,100660.97
2019-01-13T00:15:31.862Z,100653.11
2019-01-13T00:18:00.174Z,100648.02
2019-01-13T00:20:28.596Z,100646.66
2019-01-13T00:22:57.026Z,100638.05
2019-01-13T00:25:25.438Z,100637.00
2019-01-13T00:27:53.900Z,100631.34
2019-01-13T00:30:22.298Z,100630.25
2019-01-13T00:32:50.839Z,100636.73
2019-01-13T00:35:19.559Z,100630.78
2019-01-13T00:37:47.871Z,100628.41
2019-01-13T00:40:18.289Z,100631.11
2019-01-13T00:42:46.596Z,100636.77
2019-01-13T00:45:15.696Z,100638.31
2019-01-13T00:47:44.013Z,100626.73
2019-01-13T00:50:14.276Z,100634.27
2019-01-13T00:52:42.659Z,100622.12
2019-01-13T00:55:12.833Z,100614.83
2019-01-13T00:57:41.116Z,100618.88
2019-01-13T01:00:13.085Z,100610.81
2019-01-13T01:02:41.460Z,100614.86
2019-01-13T01:05:10.828Z,100612.20
2019-01-13T01:07:39.120Z,100609.77
2019-01-13T01:10:10.614Z,100599.57
2019-01-13T01:12:38.992Z,100593.91
2019-01-13T01:15:10.195Z,100593.36
2019-01-13T01:17:38.496Z,100591.75
2019-01-13T01:20:10.205Z,100590.95
2019-01-13T01:22:38.618Z,100587.54
2019-01-13T01:25:08.661Z,100581.09
2019-01-13T01:27:37.017Z,100569.48
2019-01-13T01:30:08.734Z,100563.53
2019-01-13T01:32:37.142Z,100559.38
2019-01-13T01:35:06.488Z,100547.31
2019-01-13T01:37:34.939Z,100545.15
2019-01-13T01:40:03.286Z,100546.50
2019-01-13T01:42:31.661Z,100550.51
2019-01-13T01:45:00.146Z,100538.94
2019-01-13T01:47:28.559Z,100531.63
2019-01-13T01:49:56.923Z,100531.07
2019-01-13T01:52:25.277Z,100522.16
2019-01-13T01:54:56.324Z,100521.41
2019-01-13T01:57:24.643Z,100527.84
2019-01-13T01:59:52.990Z,100523.31
2019-01-13T02:02:21.490Z,100512.53
2019-01-13T02:04:49.834Z,100508.48
2019-01-13T02:07:18.192Z,100512.53
2019-01-13T02:09:46.622Z,100517.17
2019-01-13T02:12:15.056Z,100518.00
2019-01-13T02:14:43.700Z,100516.61
2019-01-13T02:17:12.083Z,100518.30
2019-01-13T02:19:40.393Z,100532.41
2019-01-13T02:22:08.733Z,100548.58
2019-01-13T02:24:37.052Z,100542.17
2019-01-13T02:27:06.548Z,100538.46
2019-01-13T02:29:34.834Z,100525.80
2019-01-13T02:32:03.217Z,100529.62
2019-01-13T02:34:31.604Z,100524.52
2019-01-13T02:37:00.114Z,100528.30
2019-01-13T02:39:28.418Z,100521.01
2019-01-13T02:41:56.701Z,100518.91
2019-01-13T02:44:25.159Z,100500.80
2019-01-13T02:46:53.439Z,100498.09
2019-01-13T02:49:21.709Z,100489.45
2019-01-13T02:51:50.120Z,100487.87
2019-01-13T02:54:18.568Z,100483.53
2019-01-13T02:56:46.848Z,100482.94
2019-01-13T02:59:15.361Z,100481.85
2019-01-13T03:01:43.675Z,100482.11
2019-01-13T03:04:12.032Z,100488.30
2019-01-13T03:06:40.362Z,100477.29
2019-01-13T03:09:08.802Z,100475.41
2019-01-13T03:11:37.110Z,100475.38
2019-01-13T03:14:05.672Z,100467.03
2019-01-13T03:16:34.311Z,100455.42
2019-01-13T03:19:02.618Z,100455.72
2019-01-13T03:21:31.043Z,100455.42
2019-01-13T03:23:59.344Z,100441.13
2019-01-13T03:26:27.711Z,100442.21
2019-01-13T03:28:56.079Z,100446.73
2019-01-13T03:31:24.441Z,100451.83
2019-01-13T03:33:52.910Z,100458.56
2019-01-13T03:36:21.290Z,100455.83
2019-01-13T03:38:49.638Z,100451.79
2019-01-13T03:41:17.943Z,100437.45
2019-01-13T03:43:46.311Z,100431.72
2019-01-13T03:46:14.650Z,100417.45
2019-01-13T03:48:43.017Z,100418.80
2019-01-13T03:51:11.350Z,100399.37
2019-01-13T03:53:39.684Z,100406.63
2019-01-13T03:56:08.068Z,100395.58
2019-01-13T03:58:36.350Z,100402.58
2019-01-13T04:01:04.694Z,100396.89
2019-01-13T04:03:33.145Z,100392.27
2019-01-13T04:06:01.473Z,100391.45
2019-01-13T04:08:29.750Z,100378.72
2019-01-13T04:10:58.200Z,100372.80
2019-01-13T04:13:26.667Z,100366.80
2019-01-13T04:15:57.329Z,100361.97
2019-01-13T04:18:25.676Z,100352.27
2019-01-13T04:20:54.123Z,100344.13
2019-01-13T04:23:22.510Z,100339.30
2019-01-13T04:25:50.794Z,100329.78
2019-01-13T04:28:19.890Z,100319.56
2019-01-13T04:30:48.511Z,100322.77
2019-01-13T04:33:17.058Z,100311.17
2019-01-13T04:35:45.350Z,100303.38
2019-01-13T04:38:14.002Z,100301.47
2019-01-13T04:40:42.389Z,100297.42
2019-01-13T04:43:10.751Z,100285.02
2019-01-13T04:45:39.298Z,100278.50
2019-01-13T04:48:07.666Z,100283.06
2019-01-13T04:50:36.044Z,100277.41
2019-01-13T04:53:04.479Z,100274.23
2019-01-13T04:55:32.880Z,100270.67
2019-01-13T04:58:01.239Z,100266.88
2019-01-13T05:00:29.668Z,100264.97
2019-01-13T05:02:58.078Z,100260.34
2019-01-13T05:05:26.323Z,100253.30
2019-01-13T05:07:54.788Z,100253.30
2019-01-13T05:10:23.141Z,100245.20
2019-01-13T05:12:51.471Z,100237.91
2019-01-13T05:15:19.882Z,100236.02
2019-01-13T05:17:48.268Z,100224.62
2019-01-13T05:20:18.599Z,100214.67
2019-01-13T05:22:47.769Z,100219.28
2019-01-13T05:25:16.234Z,100212.23
2019-01-13T05:27:44.591Z,100202.79
2019-01-13T05:30:15.920Z,100195.43
2019-01-13T05:32:44.206Z,100193.50
2019-01-13T05:35:12.511Z,100198.02
2019-01-13T05:37:40.979Z,100189.56
2019-01-13T05:40:14.908Z,100189.56
2019-01-13T05:42:43.198Z,100175.19
2019-01-13T05:45:14.493Z,100169.28
2019-01-13T05:47:42.907Z,100164.39
2019-01-13T05:50:13.411Z,100152.45
2019-01-13T05:52:42.919Z,100149.19
2019-01-13T05:55:11.170Z,100157.48
2019-01-13T05:57:39.548Z,100147.22
2019-01-13T06:00:13.747Z,100141.30
2019-01-13T06:02:42.026Z,100134.23
2019-01-13T06:05:10.347Z,100131.28
2019-01-13T06:07:38.617Z,100129.09
2019-01-13T06:10:10.140Z,100119.03
2019-01-13T06:12:38.427Z,100118.52
2019-01-13T06:15:09.699Z,100115.77
2019-01-13T06:17:37.975Z,100111.22
2019-01-13T06:20:09.563Z,100108.67
2019-01-13T06:22:37.987Z,100110.78
2019-01-13T06:25:06.474Z,100101.65
2019-01-13T06:27:34.759Z,100099.67
2019-01-13T06:30:03.185Z,100091.83
2019-01-13T06:32:31.501Z,100084.14
2019-01-13T06:34:59.871Z,100086.22
2019-01-13T06:37:28.146Z,100082.73
2019-01-13T06:39:56.566Z,100079.47
2019-01-13T06:42:24.915Z,100068.87
2019-01-13T06:44:53.236Z,100063.34
2019-01-13T06:47:21.663Z,100064.69
2019-01-13T06:49:49.956Z,100051.19
2019-01-13T06:52:18.345Z,100055.24
2019-01-13T06:54:46.646Z,100056.28
2019-01-13T06:57:15.007Z,100052.35
2019-01-13T06:59:43.348Z,100058.13
2019-01-13T07:02:11.624Z,100053.52
2019-01-13T07:04:40.052Z,100061.61
2019-01-13T07:07:08.416Z,100051.63
2019-01-13T07:09:36.894Z,100052.16
2019-01-13T07:12:05.197Z,100045.35
2019-01-13T07:14:33.513Z,100039.38
2019-01-13T07:17:01.867Z,100045.60
2019-01-13T07:19:30.220Z,100035.59
2019-01-13T07:21:58.669Z,100037.97
2019-01-13T07:24:27.008Z,100034.98
2019-01-13T07:26:55.367Z,100028.77
2019-01-13T07:29:23.818Z,100021.70
2019-01-13T07:31:52.173Z,100024.34
2019-01-13T07:34:20.483Z,100022.67
2019-01-13T07:36:48.835Z,100019.44
2019-01-13T07:39:17.106Z,100011.52
2019-01-13T07:41:46.024Z,100010.95
2019-01-13T07:44:14.323Z,100016.76
2019-01-13T07:46:42.582Z,100010.25
2019-01-13T07:49:10.996Z,100013.14
2019-01-13T07:51:40.169Z,100007.98
2019-01-13T07:54:08.749Z,100004.15
2019-01-13T07:56:37.094Z,99998.75
2019-01-13T07:59:05.346Z,100002.45
2019-01-13T08:01:33.713Z,99996.80
2019-01-13T08:04:01.993Z,99998.61
2019-01-13T08:06:30.394Z,99995.59
2019-01-13T08:08:58.665Z,99985.03
2019-01-13T08:11:26.966Z,99989.09
2019-01-13T08:13:55.322Z,99987.66
2019-01-13T08:16:23.706Z,99981.62
2019-01-13T08:18:52.109Z,99976.22
2019-01-13T08:21:20.465Z,99976.47
2019-01-13T08:23:48.918Z,99976.79
2019-01-13T08:26:18.834Z,99974.33
2019-01-13T08:28:47.114Z,99970.75
2019-01-13T08:31:15.491Z,99973.70
2019-01-13T08:33:43.830Z,99973.38
2019-01-13T08:36:12.163Z,99976.33
2019-01-13T08:38:42.083Z,99971.09
2019-01-13T08:41:14.761Z,99967.30
2019-01-13T08:43:43.113Z,99957.34
2019-01-13T08:46:11.482Z,99953.78
2019-01-13T08:48:41.627Z,99951.08
2019-01-13T08:51:11.404Z,99946.14
2019-01-13T08:53:41.510Z,99952.82
2019-01-13T08:56:10.103Z,99942.66
2019-01-13T08:58:38.557Z,99948.84
2019-01-13T09:01:08.509Z,99950.77
2019-01-13T09:03:36.893Z,99942.91
2019-01-13T09:06:05.202Z,99935.83
2019-01-13T09:08:33.579Z,99936.29
2019-01-13T09:11:01.910Z,99935.68
2019-01-13T09:13:30.270Z,99935.89
2019-01-13T09:15:58.872Z,99932.97
2019-01-13T09:18:27.185Z,99929.70
2019-01-13T09:20:55.501Z,99931.05
2019-01-13T09:23:23.858Z,99924.87
2019-01-13T09:25:53.439Z,99926.11
2019-01-13T09:28:21.980Z,99920.88
2019-01-13T09:30:50.458Z,99928.45
2019-01-13T09:33:20.975Z,99926.61
2019-01-13T09:35:49.453Z,99920.09
2019-01-13T09:38:17.963Z,99919.85
2019-01-13T09:40:48.468Z,99918.99
2019-01-13T09:43:16.812Z,99913.52
2019-01-13T09:45:45.299Z,99918.75
2019-01-13T09:48:13.736Z,99915.97
2019-01-13T09:50:42.113Z,99929.80
2019-01-13T09:53:10.449Z,99913.88
2019-01-13T09:55:38.998Z,99911.59
2019-01-13T09:58:07.449Z,99913.27
2019-01-13T10:00:35.875Z,99909.45
2019-01-13T10:03:05.349Z,99899.19
2019-01-13T10:05:33.609Z,99903.23
2019-01-13T10:08:01.859Z,99895.05
2019-01-13T10:10:30.244Z,99900.00
2019-01-13T10:12:58.492Z,99886.70
2019-01-13T10:15:27.479Z,99893.31
2019-01-13T10:17:55.835Z,99883.22
2019-01-13T10:20:24.036Z,99881.70
2019-01-13T10:22:52.413Z,99885.21
2019-01-13T10:25:20.667Z,99877.03
2019-01-13T10:27:48.994Z,99873.67
2019-01-13T10:30:20.522Z,99860.00
2019-01-13T10:32:54.434Z,99847.19
2019-01-13T10:35:18.796Z,99861.91
2019-01-13T10:37:47.039Z,99863.59
2019-01-13T10:40:17.583Z,99866.11
2019-01-13T10:42:45.816Z,99846.41
2019-01-13T10:45:17.986Z,99856.44
2019-01-13T10:47:45.937Z,99843.13
2019-01-13T10:50:16.873Z,99837.73
2019-01-13T10:52:45.143Z,99834.81
2019-01-13T10:55:13.465Z,99834.56
2019-01-13T10:57:41.747Z,99829.24
2019-01-13T11:00:15.812Z,99811.59
2019-01-13T11:02:44.066Z,99813.89
2019-01-13T11:05:12.329Z,99814.62
2019-01-13T11:07:40.618Z,99801.44
2019-01-13T11:10:14.443Z,99798.00
2019-01-13T11:12:42.690Z,99789.81
2019-01-13T11:15:13.469Z,99789.66
2019-01-13T11:17:42.359Z,99790.55
2019-01-13T11:20:23.293Z,99771.47
2019-01-13T11:22:51.703Z,99780.36
2019-01-13T11:25:20.026Z,99771.14
2019-01-13T11:27:48.281Z,99771.47
2019-01-13T11:30:18.897Z,99774.79
2019-01-13T11:32:47.142Z,99773.28
2019-01-13T11:35:15.389Z,99768.92
2019-01-13T11:37:43.651Z,99756.03
2019-01-13T11:40:15.003Z,99747.93
2019-01-13T11:42:43.314Z,99747.30
2019-01-13T11:45:11.674Z,99752.59
2019-01-13T11:47:39.920Z,99758.12
2019-01-13T11:50:13.497Z,99740.31
2019-01-13T11:52:41.812Z,99720.37
2019-01-13T11:55:12.550Z,99721.84
2019-01-13T11:57:40.824Z,99716.11
2019-01-13T12:00:18.421Z,99708.25
2019-01-13T12:02:46.845Z,99712.95
2019-01-13T12:05:15.556Z,99694.05
2019-01-13T12:07:44.182Z,99682.98
2019-01-13T12:10:15.263Z,99676.23
2019-01-13T12:12:43.531Z,99673.29
2019-01-13T12:15:14.130Z,99686.17
2019-01-13T12:17:42.417Z,99691.25
2019-01-13T12:20:13.701Z,99697.77
2019-01-13T12:22:41.952Z,99691.58
2019-01-13T12:25:13.284Z,99684.50
2019-01-13T12:27:41.893Z,99653.75
2019-01-13T12:30:19.451Z,99631.89
2019-01-13T12:32:48.014Z,99636.19
2019-01-13T12:35:16.668Z,99635.45
2019-01-13T12:37:45.033Z,99640.33
2019-01-13T12:40:15.966Z,99632.30
2019-01-13T12:42:44.341Z,99631.31
2019-01-13T12:45:15.242Z,99629.42
2019-01-13T12:47:43.693Z,99628.16
2019-01-13T12:50:17.955Z,99618.95
2019-01-13T12:52:46.293Z,99617.02
2019-01-13T12:55:15.653Z,99606.21
2019-01-13T12:57:44.845Z,99603.45
2019-01-13T13:00:15.844Z,99599.64
2019-01-13T13:02:44.321Z,99589.06
2019-01-13T13:05:13.725Z,99581.66
2019-01-13T13:07:42.074Z,99572.67
2019-01-13T13:10:22.362Z,99569.83
2019-01-13T13:12:50.760Z,99570.30
2019-01-13T13:15:19.092Z,99567.13
2019-01-13T13:17:47.378Z,99567.36
2019-01-13T13:20:16.426Z,99565.92
2019-01-13T13:22:44.753Z,99563.22
2019-01-13T13:25:13.888Z,99561.05
2019-01-13T13:27:42.195Z,99553.97
2019-01-13T13:30:27.319Z,99561.39
2019-01-13T13:32:55.892Z,99558.23
2019-01-13T13:35:24.185Z,99545.83
2019-01-13T13:37:52.427Z,99558.53
2019-01-13T13:40:25.951Z,99545.27
2019-01-13T13:42:54.314Z,99552.26
2019-01-13T13:45:22.605Z,99549.29
2019-01-13T13:47:51.181Z,99543.23
2019-01-13T13:50:21.730Z,99535.89
2019-01-13T13:52:49.998Z,99533.77
2019-01-13T13:55:18.349Z,99521.03
2019-01-13T13:57:46.649Z,99529.63
2019-01-13T14:00:21.065Z,99532.14
2019-01-13T14:02:49.386Z,99535.05
2019-01-13T14:05:17.678Z,99533.52
2019-01-13T14:07:46.002Z,99513.58
2019-01-13T14:10:29.129Z,99512.19
2019-01-13T14:12:57.502Z,99509.72
2019-01-13T14:15:25.946Z,99508.48
2019-01-13T14:17:54.749Z,99497.43
2019-01-13T14:20:23.014Z,99502.53
2019-01-13T14:22:51.363Z,99508.15
2019-01-13T14:25:19.642Z,99497.72
2019-01-13T14:27:47.994Z,99491.20
2019-01-13T14:30:18.847Z,99495.02
2019-01-13T14:32:47.140Z,99483.09
2019-01-13T14:35:15.466Z,99486.91
2019-01-13T14:37:43.847Z,99481.40
2019-01-13T14:40:17.314Z,99477.11
2019-01-13T14:42:45.641Z,99479.34
2019-01-13T14:45:16.149Z,99479.48
2019-01-13T14:47:44.478Z,99477.45
2019-01-13T14:50:20.234Z,99472.63
2019-01-13T14:52:48.755Z,99472.86
2019-01-13T14:55:17.025Z,99477.15
2019-01-13T14:57:45.352Z,99472.19
2019-01-13T15:00:24.870Z,99471.75
2019-01-13T15:02:53.220Z,99471.08
2019-01-13T15:05:21.530Z,99476.38
2019-01-13T15:07:49.865Z,99467.73
2019-01-13T15:10:20.123Z,99464.80
2019-01-13T15:12:48.422Z,99463.11
2019-01-13T15:15:16.825Z,99451.52
2019-01-13T15:17:45.149Z,99458.51
2019-01-13T15:20:16.319Z,99452.43
2019-01-13T15:22:44.982Z,99442.28
2019-01-13T15:25:16.256Z,99445.09
2019-01-13T15:27:44.574Z,99453.98
2019-01-13T15:30:23.823Z,99456.48
2019-01-13T15:32:52.201Z,99455.70
2019-01-13T15:35:20.460Z,99450.84
2019-01-13T15:37:48.811Z,99449.25
2019-01-13T15:40:21.651Z,99462.91
2019-01-13T15:42:49.956Z,99468.31
2019-01-13T15:45:18.471Z,99442.39
2019-01-13T15:47:46.741Z,99458.38
2019-01-13T15:50:18.344Z,99479.43
2019-01-13T15:52:46.687Z,99519.39
2019-01-13T15:55:14.937Z,99515.38
2019-01-13T15:57:43.198Z,99521.87
2019-01-13T16:00:17.387Z,99523.27
2019-01-13T16:02:45.652Z,99505.03
2019-01-13T16:05:13.949Z,99524.38
2019-01-13T16:07:42.343Z,99508.05
2019-01-13T16:10:16.449Z,99513.58
2019-01-13T16:12:44.838Z,99502.66
2019-01-13T16:15:13.361Z,99508.67
2019-01-13T16:17:41.684Z,99507.88
2019-01-13T16:20:19.186Z,99523.25
2019-01-13T16:22:47.501Z,99523.25
2019-01-13T16:25:15.933Z,99512.47
2019-01-13T16:27:44.198Z,99498.98
2019-01-13T16:30:15.788Z,99488.68
2019-01-13T16:32:44.222Z,99494.20
2019-01-13T16:35:12.747Z,99481.86
2019-01-13T16:37:41.137Z,99479.00
2019-01-13T16:40:12.308Z,99470.58
2019-01-13T16:42:40.640Z,99470.66
2019-01-13T16:45:11.355Z,99468.83
2019-01-13T16:47:39.651Z,99474.59
2019-01-13T16:50:11.553Z,99468.39
2019-01-13T16:52:39.960Z,99478.28
2019-01-13T16:55:10.673Z,99479.37
2019-01-13T16:57:38.955Z,99480.55
2019-01-13T17:00:21.504Z,99482.43
2019-01-13T17:02:49.873Z,99484.92
2019-01-13T17:05:19.288Z,99487.31
2019-01-13T17:07:47.604Z,99487.96
2019-01-13T17:10:23.313Z,99486.62
2019-01-13T17:12:51.537Z,99486.87
2019-01-13T17:15:25.769Z,99497.98
2019-01-13T17:17:54.101Z,99500.28
2019-01-13T17:20:23.298Z,99492.57
2019-01-13T17:22:51.583Z,99492.36
2019-01-13T17:25:25.402Z,99496.95
2019-01-13T17:27:54.907Z,99497.27
2019-01-13T17:30:25.366Z,99507.03
2019-01-13T17:32:53.725Z,99501.31
2019-01-13T17:35:22.036Z,99505.45
2019-01-13T17:37:51.076Z,99505.68
2019-01-13T17:40:21.688Z,99503.30
2019-01-13T17:42:50.008Z,99509.92
2019-01-13T17:45:21.012Z,99515.72
2019-01-13T17:47:49.677Z,99509.91
2019-01-13T17:50:20.037Z,99509.16
2019-01-13T17:52:48.305Z,99503.77
2019-01-13T17:55:19.271Z,99505.36
2019-01-13T17:57:47.700Z,99504.66
2019-01-13T18:00:22.540Z,99523.97
2019-01-13T18:02:50.847Z,99526.69
2019-01-13T18:05:19.781Z,99531.84
2019-01-13T18:07:48.276Z,99535.52
2019-01-13T18:10:16.539Z,99528.73
2019-01-13T18:12:44.838Z,99520.27
2019-01-13T18:15:13.336Z,99532.73
2019-01-13T18:17:41.617Z,99537.11
2019-01-13T18:20:21.604Z,99533.68
2019-01-13T18:22:49.963Z,99545.41
2019-01-13T18:25:18.275Z,99559.48
2019-01-13T18:27:46.719Z,99549.91
2019-01-13T18:30:20.749Z,99555.76
2019-01-13T18:32:49.112Z,99560.02
2019-01-13T18:35:19.075Z,99557.40
2019-01-13T18:37:47.381Z,99546.72
2019-01-13T18:40:17.597Z,99550.36
2019-01-13T18:42:45.905Z,99544.80
2019-01-13T18:45:14.434Z,99540.62
2019-01-13T18:47:42.730Z,99543.94
2019-01-13T18:50:13.584Z,99550.47
2019-01-13T18:52:44.166Z,99540.46
2019-01-13T18:55:13.657Z,99550.84
2019-01-13T18:57:42.030Z,99568.70
2019-01-13T19:00:13.550Z,99560.85
2019-01-13T19:02:41.850Z,99562.33
2019-01-13T19:05:12.657Z,99561.88
2019-01-13T19:07:41.074Z,99564.01
2019-01-13T19:10:22.159Z,99575.98
2019-01-13T19:12:59.936Z,99577.19
2019-01-13T19:15:28.204Z,99578.54
2019-01-13T19:17:58.390Z,99578.78
2019-01-13T19:20:27.046Z,99575.35
2019-01-13T19:22:55.336Z,99582.09
2019-01-13T19:25:23.740Z,99579.88
2019-01-13T19:27:52.283Z,99581.30
2019-01-13T19:30:20.616Z,99575.84
2019-01-13T19:32:48.945Z,99586.84
2019-01-13T19:35:17.804Z,99595.65
2019-01-13T19:37:46.317Z,99592.70
2019-01-13T19:40:18.561Z,99602.47
2019-01-13T19:42:47.144Z,99611.20
2019-01-13T19:45:18.244Z,99609.06
2019-01-13T19:47:47.161Z,99616.02
2019-01-13T19:50:21.176Z,99633.79
2019-01-13T19:52:50.021Z,99614.53
2019-01-13T19:55:19.306Z,99616.59
2019-01-13T19:57:48.514Z,99626.02
2019-01-13T20:00:33.745Z,99622.62
2019-01-13T20:03:02.605Z,99626.24
2019-01-13T20:05:31.229Z,99630.98
2019-01-13T20:07:59.717Z,99629.57
2019-01-13T20:10:28.192Z,99629.89
2019-01-13T20:12:56.554Z,99626.41
2019-01-13T20:15:24.883Z,99620.63
2019-01-13T20:17:53.321Z,99631.73
2019-01-13T20:20:22.474Z,99635.21
2019-01-13T20:22:51.035Z,99641.23
2019-01-13T20:25:19.715Z,99640.14
2019-01-13T20:27:48.101Z,99644.96
2019-01-13T20:30:24.962Z,99641.16
2019-01-13T20:32:53.458Z,99648.62
2019-01-13T20:35:21.808Z,99652.41
2019-01-13T20:37:50.176Z,99656.38
2019-01-13T20:40:18.834Z,99657.98
2019-01-13T20:42:47.157Z,99658.30
2019-01-13T20:45:24.413Z,99655.92
2019-01-13T20:47:52.709Z,99661.45
2019-01-13T20:50:21.063Z,99652.02
2019-01-13T20:52:49.483Z,99654.89
2019-01-13T20:55:17.839Z,99665.43
2019-01-13T20:57:46.164Z,99657.66
2019-01-13T21:00:27.707Z,99671.64
2019-01-13T21:02:56.044Z,99679.48
2019-01-13T21:05:27.009Z,99667.91
2019-01-13T21:07:54.431Z,99672.31
2019-01-13T21:10:22.846Z,99667.41
2019-01-13T21:12:51.094Z,99667.38
2019-01-13T21:15:31.075Z,99671.50
2019-01-13T21:17:59.294Z,99676.53
2019-01-13T21:20:27.561Z,99692.20
2019-01-13T21:22:55.870Z,99704.52
2019-01-13T21:25:24.502Z,99699.91
2019-01-13T21:27:53.968Z,99703.23
2019-01-13T21:30:27.120Z,99703.55
2019-01-13T21:32:55.837Z,99704.80
2019-01-13T21:35:24.111Z,99709.16
2019-01-13T21:37:52.367Z,99717.45
2019-01-13T21:40:20.721Z,99706.48
2019-01-13T21:42:48.964Z,99708.28
2019-01-13T21:45:19.808Z,99714.23
2019-01-13T21:47:48.196Z,99721.75
2019-01-13T21:50:19.274Z,99721.75
2019-01-13T21:52:47.581Z,99721.53
2019-01-13T21:55:17.467Z,99724.05
2019-01-13T21:57:45.734Z,99721.44
2019-01-13T22:00:18.673Z,99732.09
2019-01-13T22:02:46.953Z,99732.58
2019-01-13T22:05:15.204Z,99736.63
2019-01-13T22:07:43.469Z,99743.61
2019-01-13T22:10:14.555Z,99728.79
2019-01-13T22:12:43.704Z,99726.56
2019-01-13T22:15:16.076Z,99737.66
2019-01-13T22:17:44.359Z,99743.30
2019-01-13T22:20:14.786Z,99745.17
2019-01-13T22:22:44.866Z,99743.61
2019-01-13T22:25:13.299Z,99742.80
2019-01-13T22:27:41.863Z,99746.06
2019-01-13T22:30:21.629Z,99747.88
2019-01-13T22:32:50.051Z,99749.72
2019-01-13T22:35:18.295Z,99763.20
2019-01-13T22:37:47.099Z,99761.12
2019-01-13T22:40:16.923Z,99762.48
2019-01-13T22:42:45.177Z,99772.19
2019-01-13T22:45:16.373Z,99782.82
2019-01-13T22:47:44.623Z,99784.05
2019-01-13T22:50:14.521Z,99787.23
2019-01-13T22:52:42.877Z,99794.20
2019-01-13T22:55:11.487Z,99790.47
2019-01-13T22:57:39.752Z,99802.37
2019-01-13T23:00:40.160Z,99811.05
2019-01-13T23:03:08.430Z,99819.45
2019-01-13T23:05:36.686Z,99827.16
2019-01-13T23:08:05.003Z,99826.75
2019-01-13T23:10:34.215Z,99828.16
2019-01-13T23:13:05.816Z,99836.45
2019-01-13T23:15:34.126Z,99839.09
2019-01-13T23:18:03.728Z,99845.23
2019-01-13T23:20:32.073Z,99850.62
2019-01-13T23:23:00.470Z,99843.78
2019-01-13T23:25:28.862Z,99845.66
2019-01-13T23:27:57.142Z,99849.16
2019-01-13T23:30:25.502Z,99866.42
2019-01-13T23:32:53.900Z,99871.19
2019-01-13T23:35:22.238Z,99874.00
2019-01-13T23:37:50.583Z,99890.22
2019-01-13T23:40:18.899Z,99896.59
2019-01-13T23:42:47.292Z,99900.16
2019-01-13T23:45:15.825Z,99907.20
2019-01-13T23:47:44.861Z,99912.44
2019-01-13T23:50:14.043Z,99921.14
2019-01-13T23:52:42.292Z,99927.81
2019-01-13T23:55:10.539Z,99930.63
2019-01-13T23:57:38.820Z,99934.05
